sensor_id;sensor_type;location;lat;lon;timestamp;P1;durP1;ratioP1;P2;durP2;ratioP2
8007;SDS011;4049;49.468;11.200;2023-08-06T00:01:38;4.83;;;3.43;;
8007;SDS011;4049;49.468;11.200;2023-08-06T00:04:05;5.80;;;3.93;;
8007;SDS011;4049;49.468;11.200;2023-08-06T00:06:32;3.97;;;3.47;;
8007;SDS011;4049;49.468;11.200;2023-08-06T00:09:00;3.60;;;3.30;;
8007;SDS011;4049;49.468;11.200;2023-08-06T00:11:27;3.80;;;3.17;;
8007;SDS011;4049;49.468;11.200;2023-08-06T00:13:53;3.50;;;3.20;;
8007;SDS011;4049;49.468;11.200;2023-08-06T00:16:20;3.77;;;3.10;;
8007;SDS011;4049;49.468;11.200;2023-08-06T00:18:47;3.90;;;3.27;;
8007;SDS011;4049;49.468;11.200;2023-08-06T00:21:14;4.30;;;3.10;;
8007;SDS011;4049;49.468;11.200;2023-08-06T00:23:41;3.60;;;3.00;;
8007;SDS011;4049;49.468;11.200;2023-08-06T00:26:09;6.53;;;3.43;;
8007;SDS011;4049;49.468;11.200;2023-08-06T00:28:36;4.17;;;3.20;;
8007;SDS011;4049;49.468;11.200;2023-08-06T00:31:03;3.93;;;3.47;;
8007;SDS011;4049;49.468;11.200;2023-08-06T00:33:30;5.27;;;3.10;;
8007;SDS011;4049;49.468;11.200;2023-08-06T00:35:57;4.20;;;2.80;;
8007;SDS011;4049;49.468;11.200;2023-08-06T00:38:24;5.00;;;3.70;;
8007;SDS011;4049;49.468;11.200;2023-08-06T00:40:51;3.77;;;3.37;;
8007;SDS011;4049;49.468;11.200;2023-08-06T00:43:19;3.63;;;3.00;;
8007;SDS011;4049;49.468;11.200;2023-08-06T00:45:49;4.60;;;3.00;;
8007;SDS011;4049;49.468;11.200;2023-08-06T00:48:16;3.67;;;3.27;;
8007;SDS011;4049;49.468;11.200;2023-08-06T00:50:43;6.03;;;3.10;;
8007;SDS011;4049;49.468;11.200;2023-08-06T00:53:10;3.97;;;3.10;;
8007;SDS011;4049;49.468;11.200;2023-08-06T00:55:37;4.13;;;3.50;;
8007;SDS011;4049;49.468;11.200;2023-08-06T00:58:04;3.63;;;3.10;;
8007;SDS011;4049;49.468;11.200;2023-08-06T01:00:33;4.77;;;3.40;;
8007;SDS011;4049;49.468;11.200;2023-08-06T01:02:59;3.87;;;3.43;;
8007;SDS011;4049;49.468;11.200;2023-08-06T01:05:26;3.90;;;3.17;;
8007;SDS011;4049;49.468;11.200;2023-08-06T01:07:58;5.00;;;3.20;;
8007;SDS011;4049;49.468;11.200;2023-08-06T01:10:39;4.17;;;3.40;;
8007;SDS011;4049;49.468;11.200;2023-08-06T01:13:16;4.13;;;3.50;;
8007;SDS011;4049;49.468;11.200;2023-08-06T01:15:49;3.87;;;3.30;;
8007;SDS011;4049;49.468;11.200;2023-08-06T01:18:18;4.73;;;3.70;;
8007;SDS011;4049;49.468;11.200;2023-08-06T01:20:46;8.47;;;3.70;;
8007;SDS011;4049;49.468;11.200;2023-08-06T01:23:14;3.87;;;3.20;;
8007;SDS011;4049;49.468;11.200;2023-08-06T01:25:45;7.13;;;3.70;;
8007;SDS011;4049;49.468;11.200;2023-08-06T01:28:30;4.00;;;3.60;;
8007;SDS011;4049;49.468;11.200;2023-08-06T01:31:04;3.73;;;3.13;;
8007;SDS011;4049;49.468;11.200;2023-08-06T01:33:37;4.27;;;3.80;;
8007;SDS011;4049;49.468;11.200;2023-08-06T01:36:11;4.63;;;3.30;;
8007;SDS011;4049;49.468;11.200;2023-08-06T01:38:39;4.43;;;3.60;;
8007;SDS011;4049;49.468;11.200;2023-08-06T01:41:06;5.30;;;3.33;;
8007;SDS011;4049;49.468;11.200;2023-08-06T01:43:33;4.80;;;3.40;;
8007;SDS011;4049;49.468;11.200;2023-08-06T01:46:00;3.63;;;3.33;;
8007;SDS011;4049;49.468;11.200;2023-08-06T01:48:26;3.77;;;3.33;;
8007;SDS011;4049;49.468;11.200;2023-08-06T01:50:53;6.50;;;3.40;;
8007;SDS011;4049;49.468;11.200;2023-08-06T01:53:21;4.27;;;3.40;;
8007;SDS011;4049;49.468;11.200;2023-08-06T01:55:49;3.73;;;3.27;;
8007;SDS011;4049;49.468;11.200;2023-08-06T01:58:16;4.70;;;3.37;;
8007;SDS011;4049;49.468;11.200;2023-08-06T02:00:43;3.93;;;3.40;;
8007;SDS011;4049;49.468;11.200;2023-08-06T02:03:10;3.87;;;3.30;;
8007;SDS011;4049;49.468;11.200;2023-08-06T02:05:37;5.60;;;3.67;;
8007;SDS011;4049;49.468;11.200;2023-08-06T02:08:04;5.43;;;3.67;;
8007;SDS011;4049;49.468;11.200;2023-08-06T02:10:32;4.80;;;4.00;;
8007;SDS011;4049;49.468;11.200;2023-08-06T02:12:59;4.00;;;3.17;;
8007;SDS011;4049;49.468;11.200;2023-08-06T02:15:26;4.37;;;3.53;;
8007;SDS011;4049;49.468;11.200;2023-08-06T02:17:53;5.67;;;3.47;;
8007;SDS011;4049;49.468;11.200;2023-08-06T02:20:20;4.73;;;3.90;;
8007;SDS011;4049;49.468;11.200;2023-08-06T02:22:46;6.33;;;3.83;;
8007;SDS011;4049;49.468;11.200;2023-08-06T02:25:23;4.80;;;3.73;;
8007;SDS011;4049;49.468;11.200;2023-08-06T02:27:52;3.67;;;3.30;;
8007;SDS011;4049;49.468;11.200;2023-08-06T02:30:19;4.07;;;3.67;;
8007;SDS011;4049;49.468;11.200;2023-08-06T02:32:45;4.60;;;3.60;;
8007;SDS011;4049;49.468;11.200;2023-08-06T02:35:12;4.57;;;3.53;;
8007;SDS011;4049;49.468;11.200;2023-08-06T02:37:39;4.67;;;3.37;;
8007;SDS011;4049;49.468;11.200;2023-08-06T02:40:07;4.30;;;3.30;;
8007;SDS011;4049;49.468;11.200;2023-08-06T02:42:34;4.23;;;3.43;;
8007;SDS011;4049;49.468;11.200;2023-08-06T02:45:02;4.30;;;3.30;;
8007;SDS011;4049;49.468;11.200;2023-08-06T02:47:30;4.50;;;3.57;;
8007;SDS011;4049;49.468;11.200;2023-08-06T02:49:57;3.37;;;3.07;;
8007;SDS011;4049;49.468;11.200;2023-08-06T02:52:24;5.80;;;3.53;;
8007;SDS011;4049;49.468;11.200;2023-08-06T02:54:50;4.10;;;2.97;;
8007;SDS011;4049;49.468;11.200;2023-08-06T02:57:18;4.30;;;3.50;;
8007;SDS011;4049;49.468;11.200;2023-08-06T02:59:44;5.33;;;3.50;;
8007;SDS011;4049;49.468;11.200;2023-08-06T03:02:13;5.33;;;3.50;;
8007;SDS011;4049;49.468;11.200;2023-08-06T03:04:40;3.77;;;3.43;;
8007;SDS011;4049;49.468;11.200;2023-08-06T03:07:07;5.03;;;3.73;;
8007;SDS011;4049;49.468;11.200;2023-08-06T03:09:33;5.07;;;3.80;;
8007;SDS011;4049;49.468;11.200;2023-08-06T03:12:00;4.93;;;3.77;;
8007;SDS011;4049;49.468;11.200;2023-08-06T03:14:30;4.27;;;3.37;;
8007;SDS011;4049;49.468;11.200;2023-08-06T03:16:57;4.37;;;3.30;;
8007;SDS011;4049;49.468;11.200;2023-08-06T03:19:25;4.73;;;3.00;;
8007;SDS011;4049;49.468;11.200;2023-08-06T03:21:52;3.73;;;3.00;;
8007;SDS011;4049;49.468;11.200;2023-08-06T03:24:19;3.70;;;3.07;;
8007;SDS011;4049;49.468;11.200;2023-08-06T03:26:46;4.17;;;3.03;;
8007;SDS011;4049;49.468;11.200;2023-08-06T03:29:13;3.40;;;3.00;;
8007;SDS011;4049;49.468;11.200;2023-08-06T03:31:40;5.07;;;3.10;;
8007;SDS011;4049;49.468;11.200;2023-08-06T03:34:07;6.13;;;3.10;;
8007;SDS011;4049;49.468;11.200;2023-08-06T03:36:44;4.03;;;3.30;;
8007;SDS011;4049;49.468;11.200;2023-08-06T03:39:10;6.07;;;3.70;;
8007;SDS011;4049;49.468;11.200;2023-08-06T03:41:39;3.87;;;3.40;;
8007;SDS011;4049;49.468;11.200;2023-08-06T03:44:06;4.13;;;3.23;;
8007;SDS011;4049;49.468;11.200;2023-08-06T03:46:32;3.23;;;2.93;;
8007;SDS011;4049;49.468;11.200;2023-08-06T03:48:59;3.23;;;2.93;;
8007;SDS011;4049;49.468;11.200;2023-08-06T03:51:26;3.83;;;3.23;;
8007;SDS011;4049;49.468;11.200;2023-08-06T03:54:00;5.20;;;3.30;;
8007;SDS011;4049;49.468;11.200;2023-08-06T03:56:27;5.73;;;3.70;;
8007;SDS011;4049;49.468;11.200;2023-08-06T03:58:54;6.10;;;3.10;;
8007;SDS011;4049;49.468;11.200;2023-08-06T04:01:21;3.63;;;3.13;;
8007;SDS011;4049;49.468;11.200;2023-08-06T04:03:48;4.17;;;3.47;;
8007;SDS011;4049;49.468;11.200;2023-08-06T04:06:15;3.37;;;3.00;;
8007;SDS011;4049;49.468;11.200;2023-08-06T04:08:42;4.37;;;3.20;;
8007;SDS011;4049;49.468;11.200;2023-08-06T04:11:10;5.73;;;3.70;;
8007;SDS011;4049;49.468;11.200;2023-08-06T04:13:38;4.60;;;3.23;;
8007;SDS011;4049;49.468;11.200;2023-08-06T04:16:08;4.20;;;3.43;;
8007;SDS011;4049;49.468;11.200;2023-08-06T04:18:35;4.17;;;3.10;;
8007;SDS011;4049;49.468;11.200;2023-08-06T04:21:02;4.83;;;3.53;;
8007;SDS011;4049;49.468;11.200;2023-08-06T04:23:29;3.80;;;3.07;;
8007;SDS011;4049;49.468;11.200;2023-08-06T04:25:56;4.40;;;3.20;;
8007;SDS011;4049;49.468;11.200;2023-08-06T04:28:24;4.53;;;2.97;;
8007;SDS011;4049;49.468;11.200;2023-08-06T04:30:51;4.43;;;3.03;;
8007;SDS011;4049;49.468;11.200;2023-08-06T04:33:18;4.13;;;3.10;;
8007;SDS011;4049;49.468;11.200;2023-08-06T04:35:46;4.43;;;3.10;;
8007;SDS011;4049;49.468;11.200;2023-08-06T04:38:12;4.53;;;3.13;;
8007;SDS011;4049;49.468;11.200;2023-08-06T04:40:39;3.70;;;3.03;;
8007;SDS011;4049;49.468;11.200;2023-08-06T04:43:07;3.60;;;3.03;;
8007;SDS011;4049;49.468;11.200;2023-08-06T04:45:35;4.80;;;3.50;;
8007;SDS011;4049;49.468;11.200;2023-08-06T04:48:02;4.70;;;3.10;;
8007;SDS011;4049;49.468;11.200;2023-08-06T04:50:29;3.40;;;3.10;;
8007;SDS011;4049;49.468;11.200;2023-08-06T04:52:56;6.03;;;3.30;;
8007;SDS011;4049;49.468;11.200;2023-08-06T04:55:23;4.50;;;3.20;;
8007;SDS011;4049;49.468;11.200;2023-08-06T04:57:50;5.20;;;3.37;;
8007;SDS011;4049;49.468;11.200;2023-08-06T05:00:16;3.70;;;2.83;;
8007;SDS011;4049;49.468;11.200;2023-08-06T05:02:45;5.17;;;3.20;;
8007;SDS011;4049;49.468;11.200;2023-08-06T05:05:12;4.63;;;3.33;;
8007;SDS011;4049;49.468;11.200;2023-08-06T05:07:39;6.80;;;3.33;;
8007;SDS011;4049;49.468;11.200;2023-08-06T05:10:06;3.53;;;3.20;;
8007;SDS011;4049;49.468;11.200;2023-08-06T05:12:33;5.60;;;3.50;;
8007;SDS011;4049;49.468;11.200;2023-08-06T05:15:00;4.30;;;3.50;;
8007;SDS011;4049;49.468;11.200;2023-08-06T05:17:27;3.90;;;3.13;;
8007;SDS011;4049;49.468;11.200;2023-08-06T05:19:55;3.23;;;2.90;;
8007;SDS011;4049;49.468;11.200;2023-08-06T05:22:22;4.93;;;3.10;;
8007;SDS011;4049;49.468;11.200;2023-08-06T05:24:49;7.00;;;3.73;;
8007;SDS011;4049;49.468;11.200;2023-08-06T05:27:16;4.87;;;3.20;;
8007;SDS011;4049;49.468;11.200;2023-08-06T05:29:44;3.10;;;2.80;;
8007;SDS011;4049;49.468;11.200;2023-08-06T05:32:11;3.10;;;2.80;;
8007;SDS011;4049;49.468;11.200;2023-08-06T05:34:38;3.83;;;3.20;;
8007;SDS011;4049;49.468;11.200;2023-08-06T05:37:07;5.77;;;3.20;;
8007;SDS011;4049;49.468;11.200;2023-08-06T05:39:35;5.83;;;3.00;;
8007;SDS011;4049;49.468;11.200;2023-08-06T05:42:02;4.17;;;3.07;;
8007;SDS011;4049;49.468;11.200;2023-08-06T05:44:32;3.23;;;2.93;;
8007;SDS011;4049;49.468;11.200;2023-08-06T05:46:59;4.13;;;3.10;;
8007;SDS011;4049;49.468;11.200;2023-08-06T05:49:26;3.67;;;2.87;;
8007;SDS011;4049;49.468;11.200;2023-08-06T05:51:53;5.03;;;3.60;;
8007;SDS011;4049;49.468;11.200;2023-08-06T05:54:35;3.70;;;2.93;;
8007;SDS011;4049;49.468;11.200;2023-08-06T05:57:02;5.07;;;3.00;;
8007;SDS011;4049;49.468;11.200;2023-08-06T05:59:29;3.87;;;2.93;;
8007;SDS011;4049;49.468;11.200;2023-08-06T06:01:56;4.07;;;3.00;;
8007;SDS011;4049;49.468;11.200;2023-08-06T06:04:25;3.80;;;3.10;;
8007;SDS011;4049;49.468;11.200;2023-08-06T06:06:52;4.17;;;3.37;;
8007;SDS011;4049;49.468;11.200;2023-08-06T06:09:18;3.63;;;3.10;;
8007;SDS011;4049;49.468;11.200;2023-08-06T06:11:47;3.73;;;3.00;;
8007;SDS011;4049;49.468;11.200;2023-08-06T06:14:15;3.00;;;2.70;;
8007;SDS011;4049;49.468;11.200;2023-08-06T06:16:42;3.87;;;3.00;;
8007;SDS011;4049;49.468;11.200;2023-08-06T06:19:09;7.23;;;3.00;;
8007;SDS011;4049;49.468;11.200;2023-08-06T06:21:35;4.60;;;3.20;;
8007;SDS011;4049;49.468;11.200;2023-08-06T06:24:03;4.03;;;2.87;;
8007;SDS011;4049;49.468;11.200;2023-08-06T06:26:30;3.93;;;3.00;;
8007;SDS011;4049;49.468;11.200;2023-08-06T06:28:59;4.07;;;3.00;;
8007;SDS011;4049;49.468;11.200;2023-08-06T06:31:26;3.73;;;3.00;;
8007;SDS011;4049;49.468;11.200;2023-08-06T06:33:59;3.83;;;2.90;;
8007;SDS011;4049;49.468;11.200;2023-08-06T06:36:30;3.87;;;2.90;;
8007;SDS011;4049;49.468;11.200;2023-08-06T06:38:57;3.67;;;2.83;;
8007;SDS011;4049;49.468;11.200;2023-08-06T06:41:24;3.80;;;3.00;;
8007;SDS011;4049;49.468;11.200;2023-08-06T06:43:51;4.03;;;3.40;;
8007;SDS011;4049;49.468;11.200;2023-08-06T06:46:19;3.17;;;2.87;;
8007;SDS011;4049;49.468;11.200;2023-08-06T06:48:46;4.33;;;3.30;;
8007;SDS011;4049;49.468;11.200;2023-08-06T06:51:13;3.53;;;3.23;;
8007;SDS011;4049;49.468;11.200;2023-08-06T06:53:40;4.07;;;3.13;;
8007;SDS011;4049;49.468;11.200;2023-08-06T06:56:07;4.17;;;2.97;;
8007;SDS011;4049;49.468;11.200;2023-08-06T06:58:34;5.53;;;3.27;;
8007;SDS011;4049;49.468;11.200;2023-08-06T07:01:01;6.60;;;3.70;;
8007;SDS011;4049;49.468;11.200;2023-08-06T07:03:32;3.97;;;3.10;;
8007;SDS011;4049;49.468;11.200;2023-08-06T07:05:59;3.70;;;3.30;;
8007;SDS011;4049;49.468;11.200;2023-08-06T07:08:26;4.87;;;2.97;;
8007;SDS011;4049;49.468;11.200;2023-08-06T07:10:59;3.37;;;2.77;;
8007;SDS011;4049;49.468;11.200;2023-08-06T07:13:27;5.00;;;3.27;;
8007;SDS011;4049;49.468;11.200;2023-08-06T07:15:54;5.70;;;3.03;;
8007;SDS011;4049;49.468;11.200;2023-08-06T07:18:21;4.53;;;3.07;;
8007;SDS011;4049;49.468;11.200;2023-08-06T07:20:49;3.97;;;2.90;;
8007;SDS011;4049;49.468;11.200;2023-08-06T07:23:17;5.10;;;2.83;;
8007;SDS011;4049;49.468;11.200;2023-08-06T07:25:45;4.30;;;3.40;;
8007;SDS011;4049;49.468;11.200;2023-08-06T07:28:12;3.73;;;3.03;;
8007;SDS011;4049;49.468;11.200;2023-08-06T07:30:39;4.27;;;3.00;;
8007;SDS011;4049;49.468;11.200;2023-08-06T07:33:06;3.87;;;3.10;;
8007;SDS011;4049;49.468;11.200;2023-08-06T07:35:34;5.53;;;3.23;;
8007;SDS011;4049;49.468;11.200;2023-08-06T07:38:02;5.20;;;3.13;;
8007;SDS011;4049;49.468;11.200;2023-08-06T07:40:29;3.70;;;2.97;;
8007;SDS011;4049;49.468;11.200;2023-08-06T07:42:56;4.90;;;3.40;;
8007;SDS011;4049;49.468;11.200;2023-08-06T07:45:23;4.30;;;2.90;;
8007;SDS011;4049;49.468;11.200;2023-08-06T07:47:51;5.83;;;3.20;;
8007;SDS011;4049;49.468;11.200;2023-08-06T07:50:18;4.57;;;2.90;;
8007;SDS011;4049;49.468;11.200;2023-08-06T07:52:45;3.70;;;2.90;;
8007;SDS011;4049;49.468;11.200;2023-08-06T07:55:14;3.30;;;2.80;;
8007;SDS011;4049;49.468;11.200;2023-08-06T07:57:41;4.43;;;3.00;;
8007;SDS011;4049;49.468;11.200;2023-08-06T08:00:08;5.83;;;3.50;;
8007;SDS011;4049;49.468;11.200;2023-08-06T08:02:35;3.90;;;3.07;;
8007;SDS011;4049;49.468;11.200;2023-08-06T08:05:02;5.53;;;2.90;;
8007;SDS011;4049;49.468;11.200;2023-08-06T08:07:32;3.20;;;2.90;;
8007;SDS011;4049;49.468;11.200;2023-08-06T08:09:59;3.53;;;2.90;;
8007;SDS011;4049;49.468;11.200;2023-08-06T08:12:31;4.40;;;2.87;;
8007;SDS011;4049;49.468;11.200;2023-08-06T08:14:58;3.23;;;2.80;;
8007;SDS011;4049;49.468;11.200;2023-08-06T08:17:25;3.53;;;2.80;;
8007;SDS011;4049;49.468;11.200;2023-08-06T08:19:52;4.13;;;2.50;;
8007;SDS011;4049;49.468;11.200;2023-08-06T08:22:19;4.10;;;2.50;;
8007;SDS011;4049;49.468;11.200;2023-08-06T08:24:47;4.23;;;2.47;;
8007;SDS011;4049;49.468;11.200;2023-08-06T08:27:14;4.07;;;2.17;;
8007;SDS011;4049;49.468;11.200;2023-08-06T08:29:42;5.67;;;2.57;;
8007;SDS011;4049;49.468;11.200;2023-08-06T08:32:09;3.93;;;2.03;;
8007;SDS011;4049;49.468;11.200;2023-08-06T08:34:36;3.70;;;2.57;;
8007;SDS011;4049;49.468;11.200;2023-08-06T08:37:03;2.70;;;1.87;;
8007;SDS011;4049;49.468;11.200;2023-08-06T08:39:31;1.90;;;1.70;;
8007;SDS011;4049;49.468;11.200;2023-08-06T08:41:58;2.07;;;1.60;;
8007;SDS011;4049;49.468;11.200;2023-08-06T08:44:26;1.63;;;1.50;;
8007;SDS011;4049;49.468;11.200;2023-08-06T08:46:55;1.33;;;1.23;;
8007;SDS011;4049;49.468;11.200;2023-08-06T08:49:23;1.77;;;1.53;;
8007;SDS011;4049;49.468;11.200;2023-08-06T08:51:51;1.27;;;1.17;;
8007;SDS011;4049;49.468;11.200;2023-08-06T08:54:20;1.60;;;1.30;;
8007;SDS011;4049;49.468;11.200;2023-08-06T08:56:49;1.57;;;1.27;;
8007;SDS011;4049;49.468;11.200;2023-08-06T08:59:18;2.97;;;1.23;;
8007;SDS011;4049;49.468;11.200;2023-08-06T09:01:45;1.47;;;1.10;;
8007;SDS011;4049;49.468;11.200;2023-08-06T09:04:17;1.17;;;0.93;;
8007;SDS011;4049;49.468;11.200;2023-08-06T09:06:46;0.97;;;0.80;;
8007;SDS011;4049;49.468;11.200;2023-08-06T09:09:17;0.93;;;0.73;;
8007;SDS011;4049;49.468;11.200;2023-08-06T09:11:52;1.13;;;0.80;;
8007;SDS011;4049;49.468;11.200;2023-08-06T09:14:23;2.20;;;0.60;;
8007;SDS011;4049;49.468;11.200;2023-08-06T09:16:50;2.33;;;0.73;;
8007;SDS011;4049;49.468;11.200;2023-08-06T09:19:19;0.93;;;0.80;;
8007;SDS011;4049;49.468;11.200;2023-08-06T09:21:47;0.77;;;0.63;;
8007;SDS011;4049;49.468;11.200;2023-08-06T09:24:17;0.60;;;0.60;;
8007;SDS011;4049;49.468;11.200;2023-08-06T09:26:44;0.70;;;0.70;;
8007;SDS011;4049;49.468;11.200;2023-08-06T09:29:11;0.80;;;0.80;;
8007;SDS011;4049;49.468;11.200;2023-08-06T09:31:41;1.20;;;0.50;;
8007;SDS011;4049;49.468;11.200;2023-08-06T09:34:14;0.50;;;0.50;;
8007;SDS011;4049;49.468;11.200;2023-08-06T09:36:55;1.33;;;0.67;;
8007;SDS011;4049;49.468;11.200;2023-08-06T09:39:26;0.60;;;0.60;;
8007;SDS011;4049;49.468;11.200;2023-08-06T09:41:55;0.93;;;0.63;;
8007;SDS011;4049;49.468;11.200;2023-08-06T09:44:24;0.63;;;0.57;;
8007;SDS011;4049;49.468;11.200;2023-08-06T09:46:52;0.70;;;0.70;;
8007;SDS011;4049;49.468;11.200;2023-08-06T09:49:22;1.53;;;0.60;;
8007;SDS011;4049;49.468;11.200;2023-08-06T09:51:52;3.47;;;0.60;;
8007;SDS011;4049;49.468;11.200;2023-08-06T09:54:24;0.53;;;0.53;;
8007;SDS011;4049;49.468;11.200;2023-08-06T09:56:52;0.53;;;0.53;;
8007;SDS011;4049;49.468;11.200;2023-08-06T09:59:28;2.33;;;0.67;;
8007;SDS011;4049;49.468;11.200;2023-08-06T10:02:10;0.97;;;0.70;;
8007;SDS011;4049;49.468;11.200;2023-08-06T10:04:40;0.70;;;0.70;;
8007;SDS011;4049;49.468;11.200;2023-08-06T10:07:10;0.90;;;0.70;;
8007;SDS011;4049;49.468;11.200;2023-08-06T10:09:37;0.67;;;0.60;;
8007;SDS011;4049;49.468;11.200;2023-08-06T10:12:05;0.70;;;0.70;;
8007;SDS011;4049;49.468;11.200;2023-08-06T10:14:33;0.70;;;0.70;;
8007;SDS011;4049;49.468;11.200;2023-08-06T10:17:02;0.93;;;0.90;;
8007;SDS011;4049;49.468;11.200;2023-08-06T10:19:30;0.50;;;0.50;;
8007;SDS011;4049;49.468;11.200;2023-08-06T10:22:12;1.17;;;0.80;;
8007;SDS011;4049;49.468;11.200;2023-08-06T10:24:46;0.70;;;0.67;;
8007;SDS011;4049;49.468;11.200;2023-08-06T10:27:19;0.80;;;0.80;;
8007;SDS011;4049;49.468;11.200;2023-08-06T10:29:47;0.60;;;0.60;;
8007;SDS011;4049;49.468;11.200;2023-08-06T10:32:20;1.20;;;0.90;;
8007;SDS011;4049;49.468;11.200;2023-08-06T10:34:54;0.70;;;0.70;;
8007;SDS011;4049;49.468;11.200;2023-08-06T10:37:23;0.70;;;0.70;;
8007;SDS011;4049;49.468;11.200;2023-08-06T10:40:00;0.90;;;0.80;;
8007;SDS011;4049;49.468;11.200;2023-08-06T10:42:29;0.60;;;0.60;;
8007;SDS011;4049;49.468;11.200;2023-08-06T10:45:13;0.87;;;0.67;;
8007;SDS011;4049;49.468;11.200;2023-08-06T10:47:41;0.70;;;0.70;;
8007;SDS011;4049;49.468;11.200;2023-08-06T10:50:11;0.57;;;0.57;;
8007;SDS011;4049;49.468;11.200;2023-08-06T10:52:42;0.70;;;0.60;;
8007;SDS011;4049;49.468;11.200;2023-08-06T10:55:10;0.50;;;0.50;;
8007;SDS011;4049;49.468;11.200;2023-08-06T10:57:40;0.50;;;0.50;;
8007;SDS011;4049;49.468;11.200;2023-08-06T11:00:07;1.07;;;0.70;;
8007;SDS011;4049;49.468;11.200;2023-08-06T11:02:37;0.50;;;0.50;;
8007;SDS011;4049;49.468;11.200;2023-08-06T11:05:05;0.60;;;0.60;;
8007;SDS011;4049;49.468;11.200;2023-08-06T11:07:33;0.43;;;0.43;;
8007;SDS011;4049;49.468;11.200;2023-08-06T11:10:02;0.53;;;0.53;;
8007;SDS011;4049;49.468;11.200;2023-08-06T11:12:30;1.77;;;0.50;;
8007;SDS011;4049;49.468;11.200;2023-08-06T11:14:57;0.60;;;0.60;;
8007;SDS011;4049;49.468;11.200;2023-08-06T11:17:24;0.60;;;0.60;;
8007;SDS011;4049;49.468;11.200;2023-08-06T11:19:51;0.33;;;0.33;;
8007;SDS011;4049;49.468;11.200;2023-08-06T11:22:20;0.60;;;0.60;;
8007;SDS011;4049;49.468;11.200;2023-08-06T11:24:47;0.50;;;0.50;;
8007;SDS011;4049;49.468;11.200;2023-08-06T11:27:16;2.20;;;0.60;;
8007;SDS011;4049;49.468;11.200;2023-08-06T11:29:44;0.57;;;0.57;;
8007;SDS011;4049;49.468;11.200;2023-08-06T11:32:11;0.30;;;0.30;;
8007;SDS011;4049;49.468;11.200;2023-08-06T11:34:38;1.30;;;0.70;;
8007;SDS011;4049;49.468;11.200;2023-08-06T11:37:06;0.40;;;0.40;;
8007;SDS011;4049;49.468;11.200;2023-08-06T11:39:35;0.67;;;0.67;;
8007;SDS011;4049;49.468;11.200;2023-08-06T11:42:03;0.47;;;0.47;;
8007;SDS011;4049;49.468;11.200;2023-08-06T11:44:35;0.70;;;0.70;;
8007;SDS011;4049;49.468;11.200;2023-08-06T11:47:02;0.40;;;0.40;;
8007;SDS011;4049;49.468;11.200;2023-08-06T11:49:37;1.43;;;0.60;;
8007;SDS011;4049;49.468;11.200;2023-08-06T11:52:09;2.93;;;0.60;;
8007;SDS011;4049;49.468;11.200;2023-08-06T11:54:37;0.40;;;0.40;;
8007;SDS011;4049;49.468;11.200;2023-08-06T11:57:05;2.27;;;0.80;;
8007;SDS011;4049;49.468;11.200;2023-08-06T11:59:33;0.57;;;0.53;;
8007;SDS011;4049;49.468;11.200;2023-08-06T12:02:01;1.40;;;0.83;;
8007;SDS011;4049;49.468;11.200;2023-08-06T12:04:30;0.40;;;0.40;;
8007;SDS011;4049;49.468;11.200;2023-08-06T12:07:04;0.83;;;0.83;;
8007;SDS011;4049;49.468;11.200;2023-08-06T12:09:32;0.93;;;0.53;;
8007;SDS011;4049;49.468;11.200;2023-08-06T12:12:01;0.47;;;0.47;;
8007;SDS011;4049;49.468;11.200;2023-08-06T12:14:28;0.50;;;0.47;;
8007;SDS011;4049;49.468;11.200;2023-08-06T12:16:57;1.20;;;0.60;;
8007;SDS011;4049;49.468;11.200;2023-08-06T12:19:23;0.50;;;0.50;;
8007;SDS011;4049;49.468;11.200;2023-08-06T12:21:51;0.60;;;0.53;;
8007;SDS011;4049;49.468;11.200;2023-08-06T12:24:18;2.50;;;0.70;;
8007;SDS011;4049;49.468;11.200;2023-08-06T12:26:45;4.30;;;0.97;;
8007;SDS011;4049;49.468;11.200;2023-08-06T12:29:14;0.50;;;0.50;;
8007;SDS011;4049;49.468;11.200;2023-08-06T12:31:42;0.83;;;0.60;;
8007;SDS011;4049;49.468;11.200;2023-08-06T12:34:10;1.00;;;0.40;;
8007;SDS011;4049;49.468;11.200;2023-08-06T12:36:37;0.47;;;0.47;;
8007;SDS011;4049;49.468;11.200;2023-08-06T12:39:03;0.60;;;0.60;;
8007;SDS011;4049;49.468;11.200;2023-08-06T12:41:30;0.70;;;0.70;;
8007;SDS011;4049;49.468;11.200;2023-08-06T12:44:00;1.03;;;0.67;;
8007;SDS011;4049;49.468;11.200;2023-08-06T12:46:27;0.70;;;0.60;;
8007;SDS011;4049;49.468;11.200;2023-08-06T12:48:53;2.77;;;0.80;;
8007;SDS011;4049;49.468;11.200;2023-08-06T12:51:26;0.80;;;0.67;;
8007;SDS011;4049;49.468;11.200;2023-08-06T12:53:53;1.07;;;0.97;;
8007;SDS011;4049;49.468;11.200;2023-08-06T12:56:20;1.10;;;0.87;;
8007;SDS011;4049;49.468;11.200;2023-08-06T12:58:47;0.97;;;0.60;;
8007;SDS011;4049;49.468;11.200;2023-08-06T13:01:14;0.50;;;0.50;;
8007;SDS011;4049;49.468;11.200;2023-08-06T13:03:41;0.50;;;0.50;;
8007;SDS011;4049;49.468;11.200;2023-08-06T13:06:08;0.53;;;0.53;;
8007;SDS011;4049;49.468;11.200;2023-08-06T13:08:36;0.40;;;0.40;;
8007;SDS011;4049;49.468;11.200;2023-08-06T13:11:03;0.60;;;0.60;;
8007;SDS011;4049;49.468;11.200;2023-08-06T13:13:34;0.40;;;0.40;;
8007;SDS011;4049;49.468;11.200;2023-08-06T13:16:01;0.53;;;0.53;;
8007;SDS011;4049;49.468;11.200;2023-08-06T13:18:28;0.50;;;0.50;;
8007;SDS011;4049;49.468;11.200;2023-08-06T13:20:57;0.50;;;0.47;;
8007;SDS011;4049;49.468;11.200;2023-08-06T13:23:25;1.90;;;0.70;;
8007;SDS011;4049;49.468;11.200;2023-08-06T13:25:53;0.43;;;0.40;;
8007;SDS011;4049;49.468;11.200;2023-08-06T13:28:20;0.63;;;0.60;;
8007;SDS011;4049;49.468;11.200;2023-08-06T13:30:47;0.50;;;0.50;;
8007;SDS011;4049;49.468;11.200;2023-08-06T13:33:14;0.80;;;0.70;;
8007;SDS011;4049;49.468;11.200;2023-08-06T13:35:41;0.70;;;0.67;;
8007;SDS011;4049;49.468;11.200;2023-08-06T13:38:08;0.67;;;0.67;;
8007;SDS011;4049;49.468;11.200;2023-08-06T13:40:35;0.50;;;0.50;;
8007;SDS011;4049;49.468;11.200;2023-08-06T13:43:04;0.60;;;0.60;;
8007;SDS011;4049;49.468;11.200;2023-08-06T13:45:31;0.40;;;0.40;;
8007;SDS011;4049;49.468;11.200;2023-08-06T13:47:59;0.57;;;0.57;;
8007;SDS011;4049;49.468;11.200;2023-08-06T13:50:26;0.80;;;0.70;;
8007;SDS011;4049;49.468;11.200;2023-08-06T13:52:54;0.30;;;0.30;;
8007;SDS011;4049;49.468;11.200;2023-08-06T13:55:21;0.40;;;0.40;;
8007;SDS011;4049;49.468;11.200;2023-08-06T13:57:48;0.40;;;0.40;;
8007;SDS011;4049;49.468;11.200;2023-08-06T14:00:17;0.40;;;0.40;;
8007;SDS011;4049;49.468;11.200;2023-08-06T14:02:44;0.40;;;0.40;;
8007;SDS011;4049;49.468;11.200;2023-08-06T14:05:11;0.30;;;0.30;;
8007;SDS011;4049;49.468;11.200;2023-08-06T14:07:38;0.43;;;0.37;;
8007;SDS011;4049;49.468;11.200;2023-08-06T14:10:06;0.40;;;0.40;;
8007;SDS011;4049;49.468;11.200;2023-08-06T14:12:38;0.40;;;0.40;;
8007;SDS011;4049;49.468;11.200;2023-08-06T14:15:05;0.40;;;0.40;;
8007;SDS011;4049;49.468;11.200;2023-08-06T14:17:34;0.43;;;0.43;;
8007;SDS011;4049;49.468;11.200;2023-08-06T14:20:01;0.40;;;0.40;;
8007;SDS011;4049;49.468;11.200;2023-08-06T14:22:29;0.53;;;0.53;;
8007;SDS011;4049;49.468;11.200;2023-08-06T14:24:56;0.40;;;0.40;;
8007;SDS011;4049;49.468;11.200;2023-08-06T14:27:24;1.33;;;0.50;;
8007;SDS011;4049;49.468;11.200;2023-08-06T14:29:54;0.40;;;0.40;;
8007;SDS011;4049;49.468;11.200;2023-08-06T14:32:21;0.43;;;0.40;;
8007;SDS011;4049;49.468;11.200;2023-08-06T14:34:49;0.60;;;0.60;;
8007;SDS011;4049;49.468;11.200;2023-08-06T14:37:17;0.90;;;0.50;;
8007;SDS011;4049;49.468;11.200;2023-08-06T14:39:44;0.40;;;0.40;;
8007;SDS011;4049;49.468;11.200;2023-08-06T14:42:10;0.60;;;0.60;;
8007;SDS011;4049;49.468;11.200;2023-08-06T14:44:37;0.97;;;0.57;;
8007;SDS011;4049;49.468;11.200;2023-08-06T14:47:04;0.70;;;0.70;;
8007;SDS011;4049;49.468;11.200;2023-08-06T14:49:31;0.73;;;0.73;;
8007;SDS011;4049;49.468;11.200;2023-08-06T14:51:59;0.70;;;0.63;;
8007;SDS011;4049;49.468;11.200;2023-08-06T14:54:27;0.70;;;0.70;;
8007;SDS011;4049;49.468;11.200;2023-08-06T14:56:54;0.40;;;0.40;;
8007;SDS011;4049;49.468;11.200;2023-08-06T14:59:21;1.50;;;0.50;;
8007;SDS011;4049;49.468;11.200;2023-08-06T15:01:48;1.53;;;0.70;;
8007;SDS011;4049;49.468;11.200;2023-08-06T15:04:16;0.70;;;0.70;;
8007;SDS011;4049;49.468;11.200;2023-08-06T15:06:45;0.60;;;0.60;;